Terminal Aerodrome Forecast
Issued by NWS

Home | Current Version | Previous Version | Graphics & Text | Print | Product List | Glossary On
Versions: 1 2 3 4 5 6 7 8 9 10 11 12 13 14 15 16
637
FTUS43 KMPX 071726
TAFRNH
TAF
KRNH 071726Z 0718/0818 26018G28KT P6SM -SN BKN025 OVC050
     FM080000 28015G20KT 4SM -SN OVC015
     FM081500 31014G22KT 3SM -SN BR OVC012=

USA.gov is the U.S. government's official web portal to all federal, state and local government web resources and services.